Time;durP1;ratioP1;P1;durP2;ratioP2;P2;SDS_P1;SDS_P2;PMS_P1;PMS_P2;Temp;Humidity;BMP_temperature;BMP_pressure;BME280_temperature;BME280_humidity;BME280_pressure;Samples;Min_cycle;Max_cycle;Signal;HPM_P1;HPM_P2
2023/09/28 00:02:52;;;;;;;32.55;15.43;;;19.50;99.90;;;;;;5064404;28;20039;-79
2023/09/28 00:05:19;;;;;;;32.75;15.75;;;19.50;99.90;;;;;;5066982;28;20028;-80
2023/09/28 00:07:46;;;;;;;23.15;15.10;;;19.50;99.90;;;;;;5064907;28;20047;-80
2023/09/28 00:10:14;;;;;;;25.55;14.23;;;19.50;99.90;;;;;;5062986;28;20077;-80
2023/09/28 00:12:47;;;;;;;34.13;15.68;;;19.50;99.90;;;;;;5062647;28;20086;-80
2023/09/28 00:15:13;;;;;;;29.35;14.70;;;19.50;99.90;;;;;;5061513;28;21791;-80
2023/09/28 00:17:39;;;;;;;23.65;13.30;;;19.50;99.90;;;;;;5062266;28;20183;-80
2023/09/28 00:20:13;;;;;;;25.35;13.98;;;19.50;99.90;;;;;;5061664;28;20556;-80
2023/09/28 00:22:41;;;;;;;19.50;11.18;;;19.50;99.90;;;;;;5065906;28;20099;-80
2023/09/28 00:25:10;;;;;;;15.05;10.75;;;19.40;99.90;;;;;;5064463;28;20028;-80
2023/09/28 00:27:37;;;;;;;14.55;11.43;;;19.30;99.90;;;;;;5056643;28;20059;-80
2023/09/28 00:30:05;;;;;;;29.42;13.23;;;19.30;99.90;;;;;;5065244;28;20048;-80
2023/09/28 00:32:31;;;;;;;18.15;11.80;;;19.20;99.90;;;;;;5061564;28;20037;-80
2023/09/28 00:34:57;;;;;;;18.17;10.85;;;19.10;99.90;;;;;;5064550;28;20439;-80
2023/09/28 00:37:22;;;;;;;21.15;11.43;;;19.10;99.90;;;;;;5062135;28;20099;-80
2023/09/28 00:39:49;;;;;;;14.32;10.57;;;19.00;99.90;;;;;;5061206;28;20564;-80
2023/09/28 00:42:16;;;;;;;20.73;11.77;;;18.90;99.90;;;;;;5066110;28;20468;-80
2023/09/28 00:44:42;;;;;;;24.13;10.88;;;18.80;99.90;;;;;;5064017;28;20029;-80
2023/09/28 00:47:10;;;;;;;15.07;10.48;;;18.70;99.90;;;;;;5065670;28;20088;-80
2023/09/28 00:49:36;;;;;;;13.40;10.15;;;18.70;99.90;;;;;;5061724;28;20020;-80
2023/09/28 00:52:02;;;;;;;15.90;10.50;;;18.60;99.90;;;;;;5059778;28;20412;-80
2023/09/28 00:54:29;;;;;;;17.33;10.82;;;18.50;99.90;;;;;;5062531;28;20119;-80
2023/09/28 00:56:55;;;;;;;22.45;11.75;;;18.40;99.90;;;;;;5066691;28;20093;-80
2023/09/28 00:59:21;;;;;;;16.38;11.63;;;18.40;99.90;;;;;;5060081;28;20021;-80
2023/09/28 01:01:47;;;;;;;17.95;10.75;;;18.30;99.90;;;;;;5067798;28;20024;-80
2023/09/28 01:04:13;;;;;;;17.98;12.25;;;18.10;99.90;;;;;;5063844;28;20024;-80
2023/09/28 01:06:39;;;;;;;14.27;10.52;;;18.10;99.90;;;;;;5062455;28;20025;-80
2023/09/28 01:09:09;;;;;;;18.80;11.30;;;17.90;99.90;;;;;;5058107;28;20029;-80
2023/09/28 01:11:36;;;;;;;16.10;9.52;;;17.90;99.90;;;;;;5066015;28;20040;-80
2023/09/28 01:14:02;;;;;;;20.23;11.50;;;17.80;99.90;;;;;;5063681;28;20024;-80
2023/09/28 01:16:27;;;;;;;25.42;12.07;;;17.70;99.90;;;;;;5065105;28;20055;-79
2023/09/28 01:18:53;;;;;;;22.30;11.45;;;17.70;99.90;;;;;;5064127;28;20412;-79
2023/09/28 01:21:19;;;;;;;20.05;12.20;;;17.60;99.90;;;;;;5067759;28;20119;-79
2023/09/28 01:23:45;;;;;;;19.40;11.25;;;17.60;99.90;;;;;;5066549;28;20106;-80
2023/09/28 01:26:11;;;;;;;21.00;12.75;;;17.60;99.90;;;;;;5065263;28;20033;-79
2023/09/28 01:28:38;;;;;;;22.10;12.05;;;17.50;99.90;;;;;;5063823;28;20044;-79
2023/09/28 01:31:04;;;;;;;26.70;12.07;;;17.50;99.90;;;;;;5063772;28;20044;-80
2023/09/28 01:33:30;;;;;;;16.83;10.55;;;17.40;99.90;;;;;;5065481;28;20035;-80
2023/09/28 01:35:55;;;;;;;20.70;10.50;;;17.40;99.90;;;;;;5065540;28;20534;-80
2023/09/28 01:38:44;;;;;;;17.02;10.88;;;17.40;99.90;;;;;;5062726;28;20392;-79
2023/09/28 01:41:11;;;;;;;18.52;10.35;;;17.40;99.90;;;;;;5065955;28;20029;-80
2023/09/28 01:43:36;;;;;;;11.90;9.50;;;17.40;99.90;;;;;;5064411;28;20044;-80
2023/09/28 01:46:02;;;;;;;15.25;10.45;;;17.30;99.90;;;;;;5062399;28;20412;-80
2023/09/28 01:48:28;;;;;;;15.68;11.00;;;17.30;99.90;;;;;;5062919;28;20032;-80
2023/09/28 01:50:54;;;;;;;19.00;11.38;;;17.30;99.90;;;;;;5057683;28;20028;-80
2023/09/28 01:53:19;;;;;;;16.60;12.15;;;17.20;99.90;;;;;;5065069;28;20036;-80
2023/09/28 01:55:48;;;;;;;22.00;10.88;;;17.20;99.90;;;;;;5063542;28;20032;-80
2023/09/28 01:58:14;;;;;;;16.67;11.15;;;17.00;99.90;;;;;;5060128;28;20033;-79
2023/09/28 02:00:40;;;;;;;21.50;12.73;;;17.00;99.90;;;;;;5063711;28;20043;-80
2023/09/28 02:03:08;;;;;;;24.40;13.07;;;17.00;99.90;;;;;;5063045;28;20033;-80
2023/09/28 02:05:34;;;;;;;17.13;11.20;;;16.90;99.90;;;;;;5062984;28;20064;-79
2023/09/28 02:08:05;;;;;;;18.08;10.98;;;16.80;99.90;;;;;;5062529;28;20052;-79
2023/09/28 02:10:35;;;;;;;21.13;10.63;;;16.80;99.90;;;;;;5064908;28;20033;-79
2023/09/28 02:13:01;;;;;;;14.25;10.05;;;16.70;99.90;;;;;;5064429;28;20040;-79
2023/09/28 02:15:27;;;;;;;21.27;10.60;;;16.70;99.90;;;;;;5064986;28;20030;-80
2023/09/28 02:17:52;;;;;;;15.07;9.63;;;16.70;99.90;;;;;;5065818;28;20021;-80
2023/09/28 02:20:20;;;;;;;15.23;10.35;;;16.60;99.90;;;;;;5063674;28;20035;-80
2023/09/28 02:22:46;;;;;;;14.93;9.52;;;16.60;99.90;;;;;;5063563;28;20210;-80
2023/09/28 02:25:15;;;;;;;17.45;10.13;;;16.60;99.90;;;;;;5063651;28;20078;-80
2023/09/28 02:27:41;;;;;;;14.60;9.32;;;16.50;99.90;;;;;;5056355;28;20467;-80
2023/09/28 02:30:10;;;;;;;12.43;9.48;;;16.50;99.90;;;;;;5064977;28;20392;-80
2023/09/28 02:32:39;;;;;;;13.65;9.05;;;16.50;99.90;;;;;;5064642;28;20037;-80
2023/09/28 02:35:09;;;;;;;13.63;10.30;;;16.50;99.90;;;;;;5064347;28;20055;-80
2023/09/28 02:37:35;;;;;;;26.73;11.65;;;16.60;99.90;;;;;;5064573;28;20085;-80
2023/09/28 02:40:04;;;;;;;13.73;9.88;;;16.50;99.90;;;;;;5065257;28;20469;-80
2023/09/28 02:42:30;;;;;;;15.40;10.93;;;16.50;99.90;;;;;;5062650;28;20167;-79
2023/09/28 02:44:56;;;;;;;19.05;10.70;;;16.40;99.90;;;;;;5063299;28;20115;-80
2023/09/28 02:47:22;;;;;;;13.13;9.45;;;16.30;99.90;;;;;;5064856;28;20074;-80
2023/09/28 02:49:51;;;;;;;14.10;9.98;;;16.30;99.90;;;;;;5069320;28;20029;-79
2023/09/28 02:52:18;;;;;;;13.02;9.68;;;16.30;99.90;;;;;;5064561;28;20044;-80
2023/09/28 02:54:44;;;;;;;16.17;9.55;;;16.20;99.90;;;;;;5068917;28;20567;-79
2023/09/28 02:57:10;;;;;;;15.27;9.93;;;16.20;99.90;;;;;;5065777;28;20366;-80
2023/09/28 02:59:36;;;;;;;15.90;8.35;;;16.20;99.90;;;;;;5062234;28;20389;-80
2023/09/28 03:02:03;;;;;;;12.43;8.32;;;16.20;99.90;;;;;;5064849;28;20017;-79
2023/09/28 03:04:31;;;;;;;11.52;8.00;;;16.10;99.90;;;;;;5065559;28;20036;-79
2023/09/28 03:06:57;;;;;;;12.48;8.95;;;16.20;99.90;;;;;;5056534;28;20262;-80
2023/09/28 03:09:23;;;;;;;12.32;9.13;;;16.20;99.90;;;;;;5062349;28;20771;-81
2023/09/28 03:11:49;;;;;;;11.00;8.57;;;16.20;99.90;;;;;;5066121;28;20066;-79
2023/09/28 03:14:14;;;;;;;11.68;8.68;;;16.20;99.90;;;;;;5062952;28;20374;-80
2023/09/28 03:16:40;;;;;;;11.55;8.52;;;16.20;99.90;;;;;;5061360;28;20529;-80
2023/09/28 03:19:07;;;;;;;12.18;8.52;;;16.20;99.90;;;;;;5060264;28;20143;-80
2023/09/28 03:21:34;;;;;;;14.27;8.73;;;16.30;99.90;;;;;;5059847;28;20028;-80
2023/09/28 03:24:03;;;;;;;13.65;10.55;;;16.30;99.90;;;;;;5064484;28;20432;-80
2023/09/28 03:26:30;;;;;;;15.77;8.98;;;16.30;99.90;;;;;;5060525;28;20029;-80
2023/09/28 03:28:58;;;;;;;10.93;8.32;;;16.20;99.90;;;;;;5063018;28;20052;-80
2023/09/28 03:31:27;;;;;;;9.73;8.68;;;16.20;99.90;;;;;;5061924;28;20492;-80
2023/09/28 03:33:54;;;;;;;19.05;9.52;;;16.20;99.90;;;;;;5060034;28;20039;-80
2023/09/28 03:36:21;;;;;;;13.45;9.35;;;16.20;99.90;;;;;;5060640;28;20115;-80
2023/09/28 03:38:47;;;;;;;15.85;10.07;;;16.10;99.90;;;;;;5061445;28;20033;-80
2023/09/28 03:41:14;;;;;;;12.85;8.75;;;16.10;99.90;;;;;;5061251;28;20032;-80
2023/09/28 03:43:48;;;;;;;19.27;9.35;;;16.10;99.90;;;;;;5061722;28;20036;-79
2023/09/28 03:46:18;;;;;;;13.95;9.07;;;16.10;99.90;;;;;;5075728;28;20028;-80
2023/09/28 03:48:45;;;;;;;15.95;10.15;;;16.10;99.90;;;;;;5059337;28;20036;-80
2023/09/28 03:51:11;;;;;;;17.90;10.05;;;16.10;99.90;;;;;;5065106;28;20040;-80
2023/09/28 03:53:40;;;;;;;16.92;10.00;;;16.00;99.90;;;;;;5060776;28;20540;-80
2023/09/28 03:56:06;;;;;;;17.67;9.68;;;15.90;99.90;;;;;;5060142;28;20024;-80
2023/09/28 03:58:32;;;;;;;11.27;8.52;;;15.90;99.90;;;;;;5061024;28;20059;-80
2023/09/28 04:00:58;;;;;;;12.38;8.45;;;15.90;99.90;;;;;;5064556;28;20063;-80
2023/09/28 04:03:24;;;;;;;12.18;8.40;;;15.90;99.90;;;;;;5063657;28;20473;-80
2023/09/28 04:05:50;;;;;;;17.00;11.40;;;15.80;99.90;;;;;;5061998;28;20020;-81
2023/09/28 04:08:15;;;;;;;15.15;8.88;;;15.90;99.90;;;;;;5056554;28;20366;-80
2023/09/28 04:10:41;;;;;;;18.10;10.32;;;15.80;99.90;;;;;;5061328;28;20445;-81
2023/09/28 04:13:07;;;;;;;19.17;9.95;;;15.80;99.90;;;;;;5062007;28;20341;-80
2023/09/28 04:15:33;;;;;;;15.27;10.27;;;15.90;99.90;;;;;;5066625;28;20032;-80
2023/09/28 04:18:00;;;;;;;23.73;10.20;;;15.90;99.90;;;;;;5064006;28;20420;-81
2023/09/28 04:20:26;;;;;;;13.68;8.77;;;15.90;99.90;;;;;;5063957;28;20036;-80
2023/09/28 04:22:54;;;;;;;14.88;8.90;;;15.90;99.90;;;;;;5068942;28;20085;-79
2023/09/28 04:25:21;;;;;;;17.77;10.48;;;15.90;99.90;;;;;;5066183;28;20033;-79
2023/09/28 04:27:48;;;;;;;14.10;10.52;;;15.90;99.90;;;;;;5067104;28;20046;-80
2023/09/28 04:30:13;;;;;;;21.23;10.50;;;15.90;99.90;;;;;;5064448;28;20048;-80
2023/09/28 04:32:42;;;;;;;15.10;10.55;;;15.90;99.90;;;;;;5066009;28;20067;-80
2023/09/28 04:35:10;;;;;;;18.15;10.25;;;16.00;99.90;;;;;;5067016;28;20035;-80
2023/09/28 04:37:37;;;;;;;13.70;9.45;;;15.90;99.90;;;;;;5065642;28;20037;-80
2023/09/28 04:40:03;;;;;;;14.48;9.73;;;15.90;99.90;;;;;;5061626;28;20028;-80
2023/09/28 04:42:31;;;;;;;22.25;10.90;;;15.90;99.90;;;;;;5065566;28;20028;-80
2023/09/28 04:44:57;;;;;;;10.25;8.35;;;15.90;99.90;;;;;;5065086;28;20055;-80
2023/09/28 04:47:26;;;;;;;16.13;9.60;;;15.80;99.90;;;;;;5066916;28;20052;-79
2023/09/28 04:49:51;;;;;;;14.63;8.90;;;15.80;99.90;;;;;;5065912;28;20500;-81
2023/09/28 04:52:19;;;;;;;19.38;9.02;;;15.80;99.90;;;;;;5066652;28;20059;-79
2023/09/28 04:54:45;;;;;;;19.10;9.98;;;15.70;99.90;;;;;;5064246;28;20028;-80
2023/09/28 04:57:11;;;;;;;13.05;9.65;;;15.70;99.90;;;;;;5061236;28;20055;-80
2023/09/28 04:59:40;;;;;;;20.00;10.32;;;15.70;99.90;;;;;;5062435;28;20465;-79
2023/09/28 05:02:06;;;;;;;14.27;8.27;;;15.60;99.90;;;;;;5058362;28;20473;-79
2023/09/28 05:04:32;;;;;;;12.50;9.02;;;15.60;99.90;;;;;;5060713;28;20036;-80
2023/09/28 05:07:01;;;;;;;12.63;8.30;;;15.60;99.90;;;;;;5062257;28;20033;-79
2023/09/28 05:09:27;;;;;;;16.10;8.73;;;15.50;99.90;;;;;;5062111;28;20044;-80
2023/09/28 05:11:53;;;;;;;11.27;8.75;;;15.60;99.90;;;;;;5059785;28;20405;-80
2023/09/28 05:14:24;;;;;;;15.43;8.43;;;15.50;99.90;;;;;;5061008;28;20043;-80
2023/09/28 05:16:50;;;;;;;12.43;9.18;;;15.50;99.90;;;;;;5066000;28;20024;-79
2023/09/28 05:19:15;;;;;;;11.25;8.05;;;15.50;99.90;;;;;;5058601;28;20120;-79
2023/09/28 05:21:41;;;;;;;14.43;8.88;;;15.60;99.90;;;;;;5065347;28;20021;-79
2023/09/28 05:24:07;;;;;;;12.05;9.27;;;15.60;99.90;;;;;;5064651;28;20384;-79
2023/09/28 05:26:32;;;;;;;15.60;9.65;;;15.60;99.90;;;;;;5061822;28;20028;-79
2023/09/28 05:28:58;;;;;;;10.25;7.85;;;15.60;99.90;;;;;;5062763;28;20127;-79
2023/09/28 05:31:24;;;;;;;12.35;9.20;;;15.60;99.90;;;;;;5059346;28;20051;-79
2023/09/28 05:33:50;;;;;;;13.85;8.82;;;15.60;99.90;;;;;;5060153;28;20131;-79
2023/09/28 05:36:15;;;;;;;14.40;9.27;;;15.60;99.90;;;;;;5066023;28;20104;-79
2023/09/28 05:38:41;;;;;;;13.15;8.18;;;15.60;99.90;;;;;;5064208;28;20581;-79
2023/09/28 05:41:07;;;;;;;14.75;8.82;;;15.60;99.90;;;;;;5063444;28;20060;-79
2023/09/28 05:43:35;;;;;;;18.58;9.93;;;15.70;99.90;;;;;;5059331;28;20422;-79
2023/09/28 05:46:01;;;;;;;17.88;10.05;;;15.70;99.90;;;;;;5053972;28;20036;-79
2023/09/28 05:48:27;;;;;;;12.05;10.20;;;15.70;99.90;;;;;;5061614;28;20036;-79
2023/09/28 05:50:56;;;;;;;24.27;11.73;;;15.70;99.90;;;;;;5061066;28;20040;-79
2023/09/28 05:53:23;;;;;;;22.20;9.80;;;15.80;99.90;;;;;;5056852;28;20028;-79
2023/09/28 05:55:53;;;;;;;15.30;9.45;;;15.80;99.90;;;;;;5063841;28;20565;-79
2023/09/28 05:58:19;;;;;;;11.35;8.38;;;15.90;99.90;;;;;;5059505;28;20358;-79
2023/09/28 06:00:45;;;;;;;15.25;10.05;;;16.00;99.90;;;;;;5056468;28;20503;-79
2023/09/28 06:03:11;;;;;;;14.90;9.25;;;16.10;99.90;;;;;;5056577;28;20032;-79
2023/09/28 06:05:40;;;;;;;10.52;8.48;;;16.10;99.90;;;;;;5059246;28;20720;-79
2023/09/28 06:08:05;;;;;;;12.80;7.60;;;16.20;99.90;;;;;;5063985;28;20070;-79
2023/09/28 06:10:33;;;;;;;13.52;7.20;;;16.30;99.90;;;;;;5062514;28;20381;-79
2023/09/28 06:12:59;;;;;;;13.02;6.65;;;16.60;99.90;;;;;;5057529;28;20020;-79
2023/09/28 06:15:25;;;;;;;17.88;5.30;;;16.90;99.90;;;;;;5061028;28;20392;-79
2023/09/28 06:17:50;;;;;;;6.25;4.82;;;17.20;99.90;;;;;;5061408;28;20028;-79
2023/09/28 06:20:17;;;;;;;8.57;4.70;;;17.60;99.90;;;;;;5062101;28;20025;-80
2023/09/28 06:22:43;;;;;;;10.15;4.85;;;17.80;99.90;;;;;;5058517;28;20384;-79
2023/09/28 06:25:08;;;;;;;7.15;4.90;;;17.90;99.90;;;;;;5061342;28;20028;-79
2023/09/28 06:27:37;;;;;;;8.50;4.35;;;18.00;99.90;;;;;;5067571;28;20056;-79
2023/09/28 06:30:03;;;;;;;7.82;4.63;;;18.00;99.90;;;;;;5062735;28;20056;-79
2023/09/28 06:32:29;;;;;;;8.50;5.32;;;18.10;99.90;;;;;;5067495;28;20032;-79
2023/09/28 06:34:55;;;;;;;6.72;4.50;;;18.00;99.90;;;;;;5066797;28;20035;-79
2023/09/28 06:37:20;;;;;;;6.15;4.72;;;18.10;99.90;;;;;;5066023;28;20046;-79
2023/09/28 06:39:46;;;;;;;6.68;4.03;;;18.10;99.90;;;;;;5065505;28;20077;-80
2023/09/28 06:42:11;;;;;;;9.90;4.78;;;18.20;99.90;;;;;;5064277;28;20202;-79
2023/09/28 06:44:37;;;;;;;6.55;4.18;;;18.30;99.90;;;;;;5065534;28;20036;-80
2023/09/28 06:47:03;;;;;;;7.50;4.32;;;18.40;99.90;;;;;;5064367;28;20531;-80
2023/09/28 06:49:28;;;;;;;5.13;4.00;;;18.60;99.90;;;;;;5061779;28;20028;-80
2023/09/28 06:51:54;;;;;;;6.53;4.07;;;18.70;99.90;;;;;;5058679;28;20040;-79
2023/09/28 06:54:20;;;;;;;5.63;3.40;;;18.80;99.90;;;;;;5066593;28;20083;-79
2023/09/28 06:56:49;;;;;;;8.27;4.80;;;18.80;99.90;;;;;;5066321;28;20190;-80
2023/09/28 06:59:15;;;;;;;5.43;3.92;;;18.80;99.90;;;;;;5067114;28;20025;-80
2023/09/28 07:01:40;;;;;;;9.43;5.03;;;18.80;99.90;;;;;;5058788;28;20029;-79
2023/09/28 07:04:06;;;;;;;7.85;4.25;;;18.80;99.90;;;;;;5057635;28;20152;-79
2023/09/28 07:06:33;;;;;;;4.60;4.07;;;18.80;99.90;;;;;;5062311;28;20226;-79
2023/09/28 07:08:59;;;;;;;8.10;3.92;;;18.80;99.90;;;;;;5059013;28;20024;-80
2023/09/28 07:11:26;;;;;;;5.88;3.80;;;18.90;99.90;;;;;;5063961;28;20051;-79
2023/09/28 07:13:52;;;;;;;6.68;4.10;;;18.90;99.90;;;;;;5062519;28;20058;-79
2023/09/28 07:16:19;;;;;;;7.72;4.20;;;19.00;99.90;;;;;;5075775;28;20484;-79
2023/09/28 07:18:44;;;;;;;13.98;4.90;;;19.00;99.90;;;;;;5066829;28;20027;-79
2023/09/28 07:21:10;;;;;;;10.10;4.50;;;18.90;99.90;;;;;;5065494;28;20418;-80
2023/09/28 07:23:36;;;;;;;5.65;3.80;;;19.00;99.90;;;;;;5063600;28;20131;-79
2023/09/28 07:26:02;;;;;;;11.55;4.07;;;19.20;99.90;;;;;;5069220;28;20372;-79
2023/09/28 07:28:28;;;;;;;5.10;3.83;;;19.40;99.90;;;;;;5067618;28;20044;-79
2023/09/28 07:30:54;;;;;;;13.05;4.70;;;19.50;99.90;;;;;;5062855;28;20040;-78
2023/09/28 07:33:20;;;;;;;11.82;3.88;;;19.60;99.90;;;;;;5062892;28;20017;-79
2023/09/28 07:35:46;;;;;;;6.03;4.05;;;19.80;99.90;;;;;;5069413;28;20507;-79
2023/09/28 07:38:12;;;;;;;7.45;4.20;;;19.80;99.90;;;;;;5066243;28;20036;-79
2023/09/28 07:40:37;;;;;;;11.10;4.25;;;19.90;99.90;;;;;;5067039;28;20035;-80
2023/09/28 07:43:03;;;;;;;4.95;3.90;;;19.90;99.90;;;;;;5064439;28;20024;-79
2023/09/28 07:45:30;;;;;;;12.50;4.43;;;20.00;99.90;;;;;;5065741;28;20059;-79
2023/09/28 07:47:55;;;;;;;7.07;4.10;;;20.10;99.90;;;;;;5067778;28;20106;-79
2023/09/28 07:50:21;;;;;;;6.45;3.78;;;20.10;99.90;;;;;;5067932;28;20496;-79
2023/09/28 07:52:47;;;;;;;6.75;4.05;;;20.20;99.90;;;;;;5063636;28;20044;-80
2023/09/28 07:55:14;;;;;;;9.13;4.10;;;20.10;99.90;;;;;;5063176;28;20009;-79
2023/09/28 07:57:40;;;;;;;7.93;3.70;;;20.20;99.90;;;;;;5065274;28;20028;-79
2023/09/28 08:00:11;;;;;;;4.88;3.67;;;20.30;99.90;;;;;;5067136;28;20028;-79
2023/09/28 08:02:37;;;;;;;10.35;3.45;;;20.30;99.90;;;;;;5070208;28;20444;-79
2023/09/28 08:05:03;;;;;;;10.45;4.30;;;20.30;99.90;;;;;;5065524;28;20024;-79
2023/09/28 08:07:31;;;;;;;8.32;3.88;;;20.30;99.90;;;;;;5068118;28;20027;-79
2023/09/28 08:09:58;;;;;;;4.07;3.15;;;20.30;99.90;;;;;;5067369;28;20029;-80
2023/09/28 08:12:25;;;;;;;6.95;3.60;;;20.30;99.90;;;;;;5065417;28;20497;-80
2023/09/28 08:14:50;;;;;;;6.20;3.63;;;20.40;99.90;;;;;;5065514;28;20024;-79
2023/09/28 08:17:16;;;;;;;8.00;3.70;;;20.50;99.90;;;;;;5066603;28;20495;-80
2023/09/28 08:19:42;;;;;;;10.02;3.63;;;20.60;99.90;;;;;;5065281;28;20016;-80
2023/09/28 08:22:09;;;;;;;10.35;3.58;;;20.60;99.90;;;;;;5066659;28;20480;-79
2023/09/28 08:24:35;;;;;;;5.22;3.42;;;20.70;99.90;;;;;;5067867;28;20129;-79
2023/09/28 08:27:01;;;;;;;6.50;3.60;;;20.70;99.90;;;;;;5063970;28;20465;-79
2023/09/28 08:29:27;;;;;;;5.75;3.50;;;20.70;99.90;;;;;;5063139;28;20136;-79
2023/09/28 08:31:54;;;;;;;5.93;3.75;;;20.70;99.90;;;;;;5060159;28;20036;-79
2023/09/28 08:34:20;;;;;;;4.57;3.55;;;20.60;99.90;;;;;;5065995;28;20024;-79
2023/09/28 08:36:45;;;;;;;10.05;4.20;;;20.60;99.90;;;;;;5058716;28;20024;-80
2023/09/28 08:39:12;;;;;;;5.68;3.55;;;20.50;99.90;;;;;;5060200;28;20024;-80
2023/09/28 08:41:54;;;;;;;7.80;3.25;;;20.50;99.90;;;;;;5062550;28;20043;-79
2023/09/28 08:44:24;;;;;;;5.78;3.58;;;20.40;99.90;;;;;;5064607;28;20028;-79
2023/09/28 08:46:57;;;;;;;6.35;3.80;;;20.30;99.90;;;;;;5062372;28;20036;-79
2023/09/28 08:49:32;;;;;;;5.22;3.08;;;20.30;99.90;;;;;;5061227;28;20225;-79
2023/09/28 08:51:58;;;;;;;6.53;4.00;;;20.30;99.90;;;;;;5063412;28;20573;-79
2023/09/28 08:54:24;;;;;;;7.05;3.80;;;20.20;99.90;;;;;;5067845;28;20074;-79
2023/09/28 08:56:52;;;;;;;6.45;3.80;;;20.20;99.90;;;;;;5066876;28;20087;-79
2023/09/28 08:59:19;;;;;;;10.25;4.85;;;20.20;99.90;;;;;;5064050;28;20040;-79
2023/09/28 09:01:46;;;;;;;9.70;4.60;;;20.20;99.90;;;;;;5062352;28;20024;-79
2023/09/28 09:04:12;;;;;;;9.55;4.20;;;20.20;99.90;;;;;;5064676;28;20024;-79
2023/09/28 09:06:40;;;;;;;9.10;4.25;;;20.20;99.90;;;;;;5060785;28;20374;-79
2023/09/28 09:09:06;;;;;;;7.53;4.30;;;20.30;99.90;;;;;;5065875;28;20028;-79
2023/09/28 09:11:37;;;;;;;5.95;4.13;;;20.30;99.90;;;;;;5060679;28;20087;-79
2023/09/28 09:14:02;;;;;;;5.80;3.83;;;20.30;99.90;;;;;;5065179;28;20033;-79
2023/09/28 09:16:29;;;;;;;7.82;4.68;;;20.30;99.90;;;;;;5066398;28;20128;-79
2023/09/28 09:18:58;;;;;;;7.70;4.07;;;20.30;99.90;;;;;;5064382;28;20115;-79
2023/09/28 09:21:24;;;;;;;15.13;5.03;;;20.30;99.90;;;;;;5068629;28;20025;-79
2023/09/28 09:24:18;;;;;;;10.27;4.50;;;20.30;99.90;;;;;;5064743;28;20516;-79
2023/09/28 09:26:50;;;;;;;11.95;4.68;;;20.30;99.90;;;;;;5065961;28;20025;-80
2023/09/28 09:29:15;;;;;;;12.07;3.78;;;20.30;99.90;;;;;;5064224;28;20032;-79
2023/09/28 09:31:44;;;;;;;6.35;3.63;;;20.30;99.90;;;;;;5062784;28;20051;-80
2023/09/28 09:34:12;;;;;;;16.50;4.10;;;20.40;99.90;;;;;;5067584;28;20101;-80
2023/09/28 09:36:38;;;;;;;5.75;3.92;;;20.40;99.90;;;;;;5060069;28;20544;-80
2023/09/28 09:39:06;;;;;;;9.40;4.22;;;20.40;99.90;;;;;;5063311;28;20028;-80
2023/09/28 09:41:43;;;;;;;6.00;4.00;;;20.50;99.90;;;;;;5064886;28;20048;-80
2023/09/28 09:44:11;;;;;;;15.32;5.03;;;20.60;99.90;;;;;;5064732;28;20029;-80
2023/09/28 09:46:36;;;;;;;7.40;3.95;;;20.80;99.90;;;;;;5061294;28;20024;-80
2023/09/28 09:49:03;;;;;;;8.82;4.32;;;20.90;99.90;;;;;;5063207;28;20031;-79
2023/09/28 09:51:32;;;;;;;5.93;4.40;;;21.00;99.90;;;;;;5061866;28;20134;-80
2023/09/28 09:53:59;;;;;;;6.47;4.00;;;21.10;99.90;;;;;;5059470;28;20038;-80
2023/09/28 09:56:26;;;;;;;5.13;3.58;;;21.00;99.90;;;;;;5060618;28;20024;-80
2023/09/28 09:58:55;;;;;;;9.27;3.83;;;21.10;99.90;;;;;;5064692;28;20472;-80
2023/09/28 10:01:22;;;;;;;7.53;3.42;;;21.00;99.90;;;;;;5095165;28;20084;-79
2023/09/28 10:03:55;;;;;;;5.10;3.70;;;21.00;99.90;;;;;;5064974;28;20038;-79
2023/09/28 10:06:23;;;;;;;7.63;3.75;;;21.00;99.90;;;;;;5065283;28;20032;-79
2023/09/28 10:08:50;;;;;;;5.60;3.88;;;20.90;99.90;;;;;;5061803;28;20102;-79
2023/09/28 10:11:17;;;;;;;4.65;3.72;;;20.90;99.90;;;;;;5059114;28;20036;-80
2023/09/28 10:13:44;;;;;;;5.70;3.85;;;21.00;99.90;;;;;;5057909;28;20051;-79
2023/09/28 10:16:12;;;;;;;6.22;3.47;;;21.00;99.90;;;;;;5050594;28;20036;-79
2023/09/28 10:18:40;;;;;;;5.32;3.47;;;21.10;99.90;;;;;;5061357;28;20028;-80
2023/09/28 10:21:06;;;;;;;5.90;3.25;;;21.10;99.90;;;;;;5058114;28;20393;-79
2023/09/28 10:23:32;;;;;;;3.72;3.00;;;21.10;99.90;;;;;;5066208;28;20047;-80
2023/09/28 10:26:18;;;;;;;4.63;3.78;;;21.00;99.90;;;;;;5066659;28;20156;-80
2023/09/28 10:29:09;;;;;;;3.38;3.08;;;21.00;99.90;;;;;;5061675;28;20119;-79
2023/09/28 10:31:41;;;;;;;8.38;4.13;;;21.10;99.90;;;;;;5055536;28;20032;-79
2023/09/28 10:34:08;;;;;;;10.23;4.18;;;21.10;99.90;;;;;;5063002;28;20557;-79
2023/09/28 10:36:35;;;;;;;5.55;3.55;;;21.20;99.90;;;;;;5064640;28;20032;-79
2023/09/28 10:39:13;;;;;;;3.78;3.40;;;21.30;99.90;;;;;;5064543;28;20039;-79
2023/09/28 10:41:42;;;;;;;5.70;3.63;;;21.40;99.90;;;;;;5065204;28;20032;-80
2023/09/28 10:44:17;;;;;;;4.45;3.65;;;21.50;99.90;;;;;;5064701;28;20567;-80
2023/09/28 10:46:49;;;;;;;;;;;21.50;99.90;;;;;;5056084;28;20643;-80
2023/09/28 10:49:22;;;;;;;8.98;3.50;;;21.50;99.90;;;;;;5062879;28;20364;-80
2023/09/28 10:51:48;;;;;;;11.02;4.43;;;21.60;99.90;;;;;;5060503;28;20457;-80
2023/09/28 10:54:14;;;;;;;5.22;3.25;;;21.70;99.90;;;;;;5065353;28;20100;-80
2023/09/28 10:56:40;;;;;;;8.70;3.55;;;21.70;99.90;;;;;;5061655;28;20119;-80
2023/09/28 10:59:07;;;;;;;5.63;3.55;;;21.70;99.90;;;;;;5063859;28;20020;-80
2023/09/28 11:01:39;;;;;;;7.80;4.10;;;21.80;99.90;;;;;;5065767;28;20024;-80
2023/09/28 11:04:05;;;;;;;7.32;4.25;;;21.80;99.90;;;;;;5060634;28;20055;-80
2023/09/28 11:06:32;;;;;;;9.60;3.40;;;21.80;99.90;;;;;;5058648;28;20484;-80
2023/09/28 11:09:03;;;;;;;6.57;3.50;;;21.80;99.90;;;;;;5058344;28;20142;-80
2023/09/28 11:11:29;;;;;;;7.80;4.07;;;21.90;99.90;;;;;;5058588;28;20039;-79
2023/09/28 11:13:59;;;;;;;6.75;3.67;;;21.90;99.90;;;;;;5060878;28;20028;-80
2023/09/28 11:16:26;;;;;;;6.47;4.18;;;21.90;99.90;;;;;;5058161;28;20362;-80
2023/09/28 11:18:56;;;;;;;3.92;2.72;;;21.90;99.90;;;;;;5056848;28;20060;-80
2023/09/28 11:21:21;;;;;;;6.80;4.00;;;21.90;99.90;;;;;;5061669;28;20032;-80
2023/09/28 11:23:49;;;;;;;7.38;3.65;;;22.00;99.90;;;;;;5059432;28;20031;-80
2023/09/28 11:26:15;;;;;;;6.40;3.63;;;22.00;99.90;;;;;;5069543;28;20107;-79
2023/09/28 11:28:41;;;;;;;5.25;3.55;;;22.00;99.90;;;;;;5067486;28;20137;-80
2023/09/28 11:31:10;;;;;;;3.70;3.15;;;22.10;99.90;;;;;;5064990;28;20459;-79
2023/09/28 11:33:37;;;;;;;12.63;4.00;;;22.20;99.90;;;;;;5059717;28;20032;-80
2023/09/28 11:36:24;;;;;;;8.25;3.75;;;22.20;99.90;;;;;;5061615;28;20197;-80
2023/09/28 11:38:52;;;;;;;8.07;3.65;;;22.30;99.90;;;;;;5065493;28;20094;-80
2023/09/28 11:41:21;;;;;;;7.22;3.45;;;22.30;99.90;;;;;;5072969;28;20024;-79
2023/09/28 11:43:49;;;;;;;9.23;3.85;;;22.40;99.90;;;;;;5065583;28;20089;-80
2023/09/28 11:46:22;;;;;;;7.38;3.83;;;22.40;99.90;;;;;;5060592;28;20040;-80
2023/09/28 11:49:09;;;;;;;7.68;3.40;;;22.50;99.90;;;;;;5063681;28;20020;-80
2023/09/28 11:51:35;;;;;;;9.63;3.60;;;22.60;99.90;;;;;;5055984;28;20052;-80
2023/09/28 11:54:02;;;;;;;11.95;4.18;;;22.60;99.90;;;;;;5068976;28;20032;-79
2023/09/28 11:56:28;;;;;;;27.00;3.42;;;22.60;99.90;;;;;;5064721;28;20615;-80
2023/09/28 11:58:53;;;;;;;10.20;3.42;;;22.70;99.90;;;;;;5067458;28;20031;-80
2023/09/28 12:01:19;;;;;;;13.55;3.20;;;22.70;99.90;;;;;;5067911;28;20017;-81
2023/09/28 12:03:51;;;;;;;7.93;3.53;;;22.70;99.90;;;;;;5066197;28;20056;-80
2023/09/28 12:06:19;;;;;;;5.22;3.40;;;22.70;99.90;;;;;;5062976;28;20021;-80
2023/09/28 12:08:46;;;;;;;9.32;3.30;;;22.80;99.90;;;;;;5064198;28;20480;-80
2023/09/28 12:11:12;;;;;;;15.05;4.47;;;22.80;99.90;;;;;;5060575;28;20562;-79
2023/09/28 12:13:38;;;;;;;10.27;3.33;;;22.90;99.90;;;;;;5062586;28;20123;-79
2023/09/28 12:16:05;;;;;;;8.07;3.60;;;22.90;99.90;;;;;;5066232;28;20112;-79
2023/09/28 12:18:32;;;;;;;25.08;3.70;;;23.00;99.90;;;;;;5061818;28;20020;-79
2023/09/28 12:20:58;;;;;;;6.63;3.28;;;23.10;99.90;;;;;;5062730;28;20036;-79
2023/09/28 12:23:25;;;;;;;7.72;3.67;;;23.10;99.90;;;;;;5065971;28;20035;-80
2023/09/28 12:25:51;;;;;;;10.60;3.70;;;23.20;99.90;;;;;;5063902;28;20056;-79
2023/09/28 12:28:17;;;;;;;9.43;3.60;;;23.20;99.90;;;;;;5063481;28;20052;-80
2023/09/28 12:30:43;;;;;;;9.93;3.63;;;23.30;99.90;;;;;;5068904;28;20039;-79
2023/09/28 12:33:09;;;;;;;7.88;3.60;;;23.40;99.90;;;;;;5066702;28;20036;-79
2023/09/28 12:35:36;;;;;;;5.43;2.97;;;23.40;99.90;;;;;;5065216;28;20488;-79
2023/09/28 12:38:04;;;;;;;5.13;3.97;;;23.50;99.90;;;;;;5063126;28;20444;-80
2023/09/28 12:40:32;;;;;;;5.90;3.40;;;23.50;99.90;;;;;;5066423;28;20103;-80